Minneapolis, Minnesota
Traffic Map
Current Weather Conditions
Minneapolis, Minnesota
Scattered Clouds
Scattered Clouds
45°
Feels Like: 37°
Wind Chill: 37° Ceiling: Unl
Heat Index: 45° Visibility: 10mi
Dew Point: 28° Wind: 18mph
Humidity: 52% Direction: 130° (SE)
Pressure: 30.15in Gusts: 30mph
Raw Report DataKMSP 190753Z 13016G26KT 10SM SCT300 07/M02 A3015 RMK AO2 PK WND 13026/0750 SLP215 T00721022
Traffic Incident Summary
Active as of:
Severity:
Category:
InformationThere was an issue retrieving the traffic information for this location. Please try a different location or try again shortly.
Advertisements
At Last! Intellicast now available for iPhone and Android